Wetterdaten: Woche 14.01.19 - 20.01.19 (KW3)
Datum Zeit Temp. A. Feuchte A. Luftdruck Regen Wind Richtung Taupunkt Windchill Windben
14.01.2019 00:00 7,2 C 75 % 992,3 hPa 0,0 l/m 14,5 km/h N 3,1 C 2,0 C 41,5 km/h
14.01.2019 01:00 7,3 C 76 % 992,3 hPa 0,0 l/m 14,9 km/h N 3,4 C 2,0 C 41,5 km/h
14.01.2019 02:00 6,2 C 81 % 994,0 hPa 4,2 l/m 11,2 km/h N 3,1 C 2,8 C 28,2 km/h
14.01.2019 03:00 5,6 C 81 % 994,2 hPa 0,3 l/m 12,9 km/h N 2,5 C 1,1 C 32,6 km/h
14.01.2019 04:00 5,9 C 77 % 994,6 hPa 0,0 l/m 12,4 km/h N 2,1 C 1,7 C 31,0 km/h
14.01.2019 05:00 6,3 C 76 % 994,8 hPa 0,0 l/m 8,5 km/h N 2,3 C 4,7 C 32,2 km/h
14.01.2019 06:00 6,2 C 76 % 995,0 hPa 0,0 l/m 7,9 km/h N 2,2 C 4,8 C 26,2 km/h
14.01.2019 07:00 6,1 C 75 % 996,1 hPa 0,5 l/m 12,5 km/h N 2,0 C 1,8 C 31,8 km/h
14.01.2019 08:00 5,4 C 76 % 997,9 hPa 0,0 l/m 13,1 km/h N 1,4 C 0,6 C 34,2 km/h
14.01.2019 09:00 6,0 C 63 % 999,0 hPa 0,0 l/m 13,8 km/h N -0,5 C 1,0 C 33,0 km/h
14.01.2019 10:00 6,5 C 61 % 999,8 hPa 0,0 l/m 16,0 km/h N -0,5 C 0,4 C 42,3 km/h
14.01.2019 11:00 5,1 C 70 % 1000,8 hPa 0,3 l/m 12,8 km/h N -0,0 C 0,4 C 36,6 km/h
14.01.2019 12:00 3,8 C 77 % 1001,0 hPa 0,5 l/m 9,2 km/h N 0,0 C 1,5 C 29,4 km/h
14.01.2019 13:00 5,6 C 57 % 1001,2 hPa 0,0 l/m 19,4 km/h N -2,3 C -2,2 C 43,5 km/h
14.01.2019 14:00 6,0 C 55 % 1001,3 hPa 0,0 l/m 14,7 km/h N -2,3 C 0,4 C 37,8 km/h
14.01.2019 15:00 5,5 C 63 % 1002,0 hPa 0,0 l/m 11,0 km/h N -0,9 C 2,1 C 33,4 km/h
14.01.2019 16:00 4,1 C 72 % 1003,0 hPa 0,3 l/m 6,7 km/h N -0,5 C 3,4 C 23,3 km/h
14.01.2019 17:00 1,7 C 80 % 1004,5 hPa 0,0 l/m 9,1 km/h N -1,4 C -0,8 C 26,1 km/h
14.01.2019 18:00 2,0 C 79 % 1005,4 hPa 0,3 l/m 9,9 km/h N -1,2 C -1,1 C 26,1 km/h
14.01.2019 19:00 2,6 C 72 % 1006,6 hPa 0,5 l/m 7,9 km/h N -2,0 C 0,8 C 22,9 km/h
14.01.2019 20:00 1,1 C 75 % 1008,2 hPa 0,0 l/m 12,3 km/h N -2,9 C -3,8 C 33,4 km/h
14.01.2019 21:00 1,1 C 67 % 1009,8 hPa 0,0 l/m 10,0 km/h N -4,3 C -2,2 C 28,1 km/h
14.01.2019 22:00 0,6 C 65 % 1011,0 hPa 0,0 l/m 6,6 km/h N -5,3 C 0,3 C 24,1 km/h
14.01.2019 23:00 0,2 C 62 % 1012,0 hPa 0,0 l/m 4,4 km/h N -6,2 C 0,2 C 22,5 km/h
15.01.2019 00:00 0,4 C 59 % 1012,4 hPa 0,0 l/m 6,2 km/h N -6,6 C -0,0 C 22,9 km/h
15.01.2019 01:00 0,7 C 60 % 1012,5 hPa 0,0 l/m 7,6 km/h N -6,2 C -0,4 C 27,3 km/h
15.01.2019 02:00 1,1 C 62 % 1012,8 hPa 0,0 l/m 8,4 km/h N -5,4 C -0,8 C 25,3 km/h
15.01.2019 03:00 1,4 C 62 % 1013,2 hPa 0,0 l/m 9,5 km/h N -5,0 C -1,4 C 27,8 km/h
15.01.2019 04:00 1,4 C 65 % 1013,3 hPa 0,0 l/m 6,0 km/h N -4,6 C 1,2 C 26,2 km/h
15.01.2019 05:00 1,7 C 68 % 1013,2 hPa 0,0 l/m 7,7 km/h N -3,6 C 0,4 C 25,3 km/h
15.01.2019 06:00 1,7 C 70 % 1013,3 hPa 0,0 l/m 10,2 km/h N -3,1 C -1,7 C 33,0 km/h
15.01.2019 07:00 2,0 C 69 % 1013,8 hPa 0,0 l/m 10,5 km/h N -3,1 C -1,5 C 30,6 km/h
15.01.2019 08:00 2,2 C 70 % 1014,7 hPa 0,0 l/m 10,6 km/h N -2,7 C -1,4 C 30,6 km/h
15.01.2019 09:00 2,4 C 71 % 1015,5 hPa 0,0 l/m 12,7 km/h N -2,4 C -2,6 C 34,2 km/h
15.01.2019 10:00 3,0 C 68 % 1015,8 hPa 0,0 l/m 13,6 km/h N -2,4 C -2,5 C 41,0 km/h
15.01.2019 11:00 3,3 C 67 % 1015,5 hPa 0,3 l/m 15,0 km/h N -2,3 C -3,0 C 43,9 km/h
15.01.2019 12:00 3,4 C 68 % 1014,9 hPa 0,0 l/m 14,9 km/h N -2,0 C -2,7 C 43,5 km/h
15.01.2019 13:00 3,6 C 67 % 1014,6 hPa 0,0 l/m 13,0 km/h N -2,0 C -1,4 C 37,4 km/h
15.01.2019 14:00 3,8 C 66 % 1014,4 hPa 0,0 l/m 15,3 km/h N -1,9 C -2,4 C 46,3 km/h
15.01.2019 15:00 4,2 C 66 % 1013,6 hPa 0,0 l/m 18,8 km/h N -1,7 C -3,7 C 51,1 km/h
15.01.2019 16:00 4,5 C 64 % 1013,8 hPa 0,0 l/m 18,4 km/h N -1,8 C -3,2 C 49,9 km/h
15.01.2019 17:00 4,8 C 62 % 1013,5 hPa 0,0 l/m 17,1 km/h N -1,9 C -2,2 C 49,5 km/h
15.01.2019 18:00 5,1 C 61 % 1013,5 hPa 0,0 l/m 18,8 km/h N -1,8 C -2,6 C 46,7 km/h
15.01.2019 19:00 5,2 C 63 % 1013,5 hPa 0,0 l/m 17,3 km/h N -1,3 C -1,7 C 45,5 km/h
15.01.2019 20:00 5,0 C 66 % 1013,1 hPa 0,0 l/m 16,6 km/h N -0,8 C -1,7 C 44,3 km/h
15.01.2019 21:00 5,0 C 68 % 1013,1 hPa 0,0 l/m 16,3 km/h N -0,4 C -1,6 C 47,9 km/h
15.01.2019 22:00 5,4 C 66 % 1013,0 hPa 0,0 l/m 19,1 km/h N -0,5 C -2,2 C 48,7 km/h
15.01.2019 23:00 5,6 C 64 % 1013,0 hPa 0,0 l/m 19,4 km/h N -0,6 C -2,2 C 47,1 km/h
16.01.2019 00:00 5,5 C 65 % 1012,7 hPa 0,0 l/m 19,0 km/h N -0,6 C -2,1 C 51,9 km/h
16.01.2019 01:00 5,7 C 64 % 1012,6 hPa 0,0 l/m 18,3 km/h N -0,6 C -1,6 C 45,1 km/h
16.01.2019 02:00 5,7 C 64 % 1012,8 hPa 0,0 l/m 16,3 km/h N -0,5 C -0,6 C 41,4 km/h
16.01.2019 03:00 6,0 C 64 % 1012,5 hPa 0,0 l/m 17,3 km/h N -0,3 C -0,7 C 45,1 km/h
16.01.2019 04:00 5,9 C 66 % 1012,1 hPa 0,0 l/m 17,8 km/h N -0,1 C -1,1 C 46,7 km/h
16.01.2019 05:00 6,0 C 65 % 1012,5 hPa 0,0 l/m 17,9 km/h N -0,1 C -1,0 C 48,7 km/h
16.01.2019 06:00 6,1 C 62 % 1012,7 hPa 0,0 l/m 14,8 km/h N -0,6 C 0,6 C 41,8 km/h
16.01.2019 07:00 5,9 C 62 % 1013,5 hPa 0,0 l/m 15,1 km/h N -0,8 C 0,1 C 44,3 km/h
16.01.2019 08:00 5,8 C 62 % 1014,5 hPa 0,0 l/m 12,6 km/h N -1,1 C 1,3 C 38,2 km/h
16.01.2019 09:00 5,9 C 61 % 1014,7 hPa 0,0 l/m 13,4 km/h N -1,1 C 1,0 C 41,8 km/h
16.01.2019 10:00 6,1 C 61 % 1014,4 hPa 0,0 l/m 14,6 km/h N -0,8 C 0,6 C 39,0 km/h
16.01.2019 11:00 6,3 C 61 % 1014,0 hPa 0,0 l/m 13,3 km/h N -0,8 C 1,5 C 37,0 km/h
16.01.2019 12:00 6,5 C 61 % 1013,9 hPa 0,0 l/m 9,7 km/h N -0,5 C 4,0 C 31,8 km/h
16.01.2019 13:00 6,8 C 62 % 1013,3 hPa 0,0 l/m 1,7 km/h N -0,0 C 6,8 C 12,1 km/h
16.01.2019 14:00 7,5 C 59 % 1013,0 hPa 0,0 l/m 1,8 km/h N -0,1 C 7,5 C 12,1 km/h
16.01.2019 15:00 8,0 C 57 % 1012,7 hPa 0,0 l/m 0,2 km/h N -0,0 C 8,0 C 4,0 km/h
16.01.2019 16:00 7,4 C 59 % 1012,5 hPa 0,0 l/m 0,1 km/h N -0,1 C 7,4 C 2,0 km/h
16.01.2019 17:00 4,8 C 64 % 1012,2 hPa 0,0 l/m 0,0 km/h N -1,4 C 4,8 C 0,0 km/h
16.01.2019 18:00 2,9 C 72 % 1011,8 hPa 0,0 l/m 0,0 km/h N -1,7 C 2,9 C 0,0 km/h
16.01.2019 19:00 1,8 C 77 % 1011,6 hPa 0,0 l/m 0,0 km/h N -1,8 C 1,8 C 0,0 km/h
16.01.2019 20:00 0,8 C 79 % 1011,2 hPa 0,0 l/m 0,0 km/h N -2,5 C 0,8 C 0,0 km/h
16.01.2019 21:00 0,2 C 80 % 1011,0 hPa 0,0 l/m 0,0 km/h N -2,8 C 0,2 C 0,0 km/h
16.01.2019 22:00 0,2 C 82 % 1010,6 hPa 0,0 l/m 0,0 km/h N -2,5 C 0,2 C 0,0 km/h
16.01.2019 23:00 -0,0 C 82 % 1010,1 hPa 0,0 l/m 0,0 km/h N -2,7 C -0,0 C 0,0 km/h
17.01.2019 00:00 -0,9 C 82 % 1009,5 hPa 0,0 l/m 0,0 km/h N -3,5 C -0,9 C 0,0 km/h
17.01.2019 01:00 -1,5 C 82 % 1009,1 hPa 0,0 l/m 0,0 km/h N -4,1 C -1,5 C 0,0 km/h
17.01.2019 02:00 -2,1 C 83 % 1008,9 hPa 0,0 l/m 0,0 km/h N -4,6 C -2,1 C 0,0 km/h
17.01.2019 03:00 -2,1 C 83 % 1008,6 hPa 0,0 l/m 0,0 km/h N -4,6 C -2,1 C 0,0 km/h
17.01.2019 04:00 -1,8 C 83 % 1008,5 hPa 0,0 l/m 0,0 km/h N -4,3 C -1,8 C 0,0 km/h
17.01.2019 05:00 -1,8 C 83 % 1008,3 hPa 0,0 l/m 0,0 km/h N -4,3 C -1,8 C 0,0 km/h
17.01.2019 06:00 -1,8 C 83 % 1008,7 hPa 0,0 l/m 0,0 km/h N -4,2 C -1,8 C 0,0 km/h
17.01.2019 07:00 -2,1 C 83 % 1008,8 hPa 0,0 l/m 0,0 km/h N -4,6 C -2,1 C 0,0 km/h
17.01.2019 08:00 -1,7 C 82 % 1009,3 hPa 0,0 l/m 0,1 km/h N -4,3 C -1,7 C 1,2 km/h
17.01.2019 09:00 0,1 C 82 % 1009,3 hPa 0,0 l/m 0,2 km/h N -2,5 C 0,1 C 5,2 km/h
17.01.2019 10:00 2,4 C 82 % 1009,2 hPa 0,0 l/m 0,2 km/h N -0,4 C 2,4 C 3,2 km/h
17.01.2019 11:00 4,8 C 82 % 1008,9 hPa 0,0 l/m 0,2 km/h N 2,0 C 4,8 C 2,8 km/h
17.01.2019 12:00 5,9 C 79 % 1008,3 hPa 0,0 l/m 0,0 km/h N 2,4 C 5,9 C 0,0 km/h
17.01.2019 13:00 8,8 C 67 % 1007,4 hPa 0,0 l/m 0,0 km/h N 3,0 C 8,8 C 1,2 km/h
17.01.2019 14:00 11,4 C 54 % 1006,9 hPa 0,0 l/m 0,4 km/h N 2,3 C 11,4 C 5,6 km/h
17.01.2019 15:00 11,2 C 51 % 1006,8 hPa 0,0 l/m 1,7 km/h N 1,5 C 11,2 C 6,8 km/h
17.01.2019 16:00 9,3 C 56 % 1006,8 hPa 0,0 l/m 0,3 km/h N 1,0 C 9,3 C 6,4 km/h
17.01.2019 17:00 6,3 C 61 % 1006,6 hPa 0,0 l/m 0,0 km/h N -0,8 C 6,3 C 0,0 km/h
17.01.2019 18:00 3,4 C 71 % 1007,0 hPa 0,0 l/m 0,0 km/h N -1,4 C 3,4 C 1,2 km/h
17.01.2019 19:00 2,2 C 76 % 1007,5 hPa 0,0 l/m 0,0 km/h N -1,6 C 2,2 C 0,0 km/h
17.01.2019 20:00 3,3 C 78 % 1007,8 hPa 0,0 l/m 2,3 km/h N -0,2 C 2,9 C 10,1 km/h
17.01.2019 21:00 8,3 C 67 % 1007,7 hPa 0,0 l/m 12,9 km/h N 2,5 C 4,1 C 35,0 km/h
17.01.2019 22:00 7,5 C 68 % 1007,9 hPa 0,0 l/m 12,3 km/h N 1,9 C 3,5 C 34,2 km/h
17.01.2019 23:00 7,4 C 63 % 1008,1 hPa 0,0 l/m 10,2 km/h N 0,7 C 4,7 C 33,8 km/h
18.01.2019 00:00 7,5 C 60 % 1008,0 hPa 0,0 l/m 10,0 km/h N 0,1 C 4,8 C 32,6 km/h
18.01.2019 01:00 7,2 C 60 % 1007,9 hPa 0,0 l/m 8,0 km/h N -0,1 C 5,9 C 26,1 km/h
18.01.2019 02:00 7,1 C 59 % 1008,1 hPa 0,0 l/m 8,8 km/h N -0,4 C 5,3 C 30,1 km/h
18.01.2019 03:00 6,6 C 60 % 1008,8 hPa 0,0 l/m 12,0 km/h N -0,6 C 2,6 C 35,0 km/h
18.01.2019 04:00 5,6 C 65 % 1009,7 hPa 0,0 l/m 7,8 km/h N -0,4 C 4,4 C 25,8 km/h
18.01.2019 05:00 5,2 C 65 % 1010,4 hPa 0,0 l/m 7,0 km/h N -0,8 C 4,6 C 23,3 km/h
18.01.2019 06:00 4,8 C 68 % 1011,4 hPa 0,0 l/m 6,8 km/h N -0,7 C 4,1 C 22,9 km/h
18.01.2019 07:00 4,5 C 68 % 1012,3 hPa 0,0 l/m 6,2 km/h N -0,9 C 4,4 C 20,9 km/h
18.01.2019 08:00 2,7 C 78 % 1014,0 hPa 0,0 l/m 6,1 km/h N -0,7 C 2,5 C 20,1 km/h
18.01.2019 09:00 0,7 C 82 % 1015,3 hPa 0,0 l/m 2,3 km/h N -2,0 C 0,7 C 10,5 km/h
18.01.2019 10:00 1,3 C 82 % 1015,7 hPa 0,5 l/m 4,0 km/h N -1,4 C 1,3 C 17,7 km/h
18.01.2019 11:00 2,2 C 78 % 1016,2 hPa 0,8 l/m 7,8 km/h N -1,2 C 0,8 C 22,9 km/h
18.01.2019 12:00 2,5 C 74 % 1016,4 hPa 0,3 l/m 7,9 km/h N -1,7 C 1,0 C 25,8 km/h
18.01.2019 13:00 3,7 C 65 % 1016,5 hPa 0,5 l/m 8,1 km/h N -2,3 C 2,2 C 23,7 km/h
18.01.2019 14:00 2,5 C 74 % 1017,4 hPa 0,0 l/m 6,6 km/h N -1,7 C 2,0 C 19,3 km/h
18.01.2019 15:00 2,1 C 74 % 1018,0 hPa 0,0 l/m 4,0 km/h N -2,0 C 2,0 C 12,9 km/h
18.01.2019 16:00 2,0 C 72 % 1018,4 hPa 0,0 l/m 0,2 km/h N -2,5 C 2,0 C 3,6 km/h
18.01.2019 17:00 1,5 C 72 % 1019,1 hPa 0,0 l/m 0,1 km/h N -3,0 C 1,5 C 1,2 km/h
18.01.2019 18:00 1,6 C 72 % 1019,8 hPa 0,0 l/m 1,6 km/h N -2,9 C 1,6 C 10,1 km/h
18.01.2019 19:00 0,7 C 74 % 1020,8 hPa 0,0 l/m 0,1 km/h N -3,3 C 0,7 C 2,4 km/h
18.01.2019 20:00 0,3 C 73 % 1021,5 hPa 0,0 l/m 1,8 km/h N -4,0 C 0,3 C 8,4 km/h
18.01.2019 21:00 -0,2 C 72 % 1021,8 hPa 0,0 l/m 0,2 km/h N -4,7 C -0,2 C 3,6 km/h
18.01.2019 22:00 -1,3 C 71 % 1022,2 hPa 0,0 l/m 0,0 km/h N -5,8 C -1,3 C 0,0 km/h
18.01.2019 23:00 -2,5 C 75 % 1022,5 hPa 0,0 l/m 0,0 km/h N -6,4 C -2,5 C 0,0 km/h
19.01.2019 00:00 -3,7 C 77 % 1022,4 hPa 0,0 l/m 0,0 km/h N -7,1 C -3,7 C 0,0 km/h
19.01.2019 01:00 -4,5 C 80 % 1022,1 hPa 0,0 l/m 0,0 km/h N -7,4 C -4,5 C 0,0 km/h
19.01.2019 02:00 -5,2 C 81 % 1022,2 hPa 0,0 l/m 0,0 km/h N -7,8 C -5,2 C 0,0 km/h
19.01.2019 03:00 -5,9 C 82 % 1022,0 hPa 0,0 l/m 0,0 km/h N -8,4 C -5,9 C 0,0 km/h
19.01.2019 04:00 -6,4 C 83 % 1021,9 hPa 0,0 l/m 0,0 km/h N -8,8 C -6,4 C 0,0 km/h
19.01.2019 05:00 -6,9 C 83 % 1021,7 hPa 0,0 l/m 0,0 km/h N -9,3 C -6,9 C 0,0 km/h
19.01.2019 06:00 -7,2 C 83 % 1021,7 hPa 0,0 l/m 0,0 km/h N -9,6 C -7,2 C 0,0 km/h
19.01.2019 07:00 -7,2 C 83 % 1021,8 hPa 0,0 l/m 0,0 km/h N -9,6 C -7,2 C 0,0 km/h
19.01.2019 08:00 -6,9 C 83 % 1021,9 hPa 0,0 l/m 0,0 km/h N -9,3 C -6,9 C 0,0 km/h
19.01.2019 09:00 -5,6 C 83 % 1021,9 hPa 0,0 l/m 0,0 km/h N -8,0 C -5,6 C 0,0 km/h
19.01.2019 10:00 -3,7 C 82 % 1022,0 hPa 0,0 l/m 0,0 km/h N -6,2 C -3,7 C 0,8 km/h
19.01.2019 11:00 -2,2 C 83 % 1021,5 hPa 0,0 l/m 0,1 km/h N -4,6 C -2,2 C 2,4 km/h
19.01.2019 12:00 -1,4 C 83 % 1021,0 hPa 0,0 l/m 0,0 km/h N -4,0 C -1,4 C 1,6 km/h
19.01.2019 13:00 -0,9 C 80 % 1020,3 hPa 0,3 l/m 0,1 km/h N -3,8 C -0,9 C 1,2 km/h
19.01.2019 14:00 -0,6 C 79 % 1019,7 hPa 0,0 l/m 0,0 km/h N -3,8 C -0,6 C 0,8 km/h
19.01.2019 15:00 -0,8 C 79 % 1019,4 hPa 0,0 l/m 0,0 km/h N -4,0 C -0,8 C 0,8 km/h
19.01.2019 16:00 -1,1 C 80 % 1019,2 hPa 0,0 l/m 0,0 km/h N -4,2 C -1,1 C 1,2 km/h
19.01.2019 17:00 -1,6 C 81 % 1018,9 hPa 0,0 l/m 0,0 km/h N -4,5 C -1,6 C 0,4 km/h
19.01.2019 18:00 -1,7 C 82 % 1018,8 hPa 0,0 l/m 0,0 km/h N -4,4 C -1,7 C 0,4 km/h
19.01.2019 19:00 -1,8 C 82 % 1018,6 hPa 0,0 l/m 0,0 km/h N -4,4 C -1,8 C 0,8 km/h
19.01.2019 20:00 -2,0 C 82 % 1018,3 hPa 0,0 l/m 0,0 km/h N -4,6 C -2,0 C 0,0 km/h
19.01.2019 21:00 -2,7 C 82 % 1017,9 hPa 0,0 l/m 0,0 km/h N -5,4 C -2,7 C 0,0 km/h
19.01.2019 22:00 -3,8 C 83 % 1017,6 hPa 0,0 l/m 0,0 km/h N -6,3 C -3,8 C 0,0 km/h
19.01.2019 23:00 -4,5 C 83 % 1017,3 hPa 0,0 l/m 0,0 km/h N -6,9 C -4,5 C 0,0 km/h
20.01.2019 00:00 -5,0 C 83 % 1016,9 hPa 0,0 l/m 0,0 km/h N -7,4 C -5,0 C 0,0 km/h
20.01.2019 01:00 -5,2 C 83 % 1016,3 hPa 0,0 l/m 0,0 km/h N -7,6 C -5,2 C 0,0 km/h
20.01.2019 02:00 -5,3 C 83 % 1016,2 hPa 0,0 l/m 0,0 km/h N -7,7 C -5,3 C 0,0 km/h
20.01.2019 03:00 -5,2 C 83 % 1015,9 hPa 0,0 l/m 0,0 km/h N -7,6 C -5,2 C 0,0 km/h
20.01.2019 04:00 -5,3 C 83 % 1015,7 hPa 0,0 l/m 0,0 km/h N -7,7 C -5,3 C 0,0 km/h
20.01.2019 05:00 -5,1 C 83 % 1015,4 hPa 0,0 l/m 0,0 km/h N -7,5 C -5,1 C 0,0 km/h
20.01.2019 06:00 -4,2 C 82 % 1015,3 hPa 0,0 l/m 0,0 km/h N -6,8 C -4,2 C 0,0 km/h
20.01.2019 07:00 -3,3 C 82 % 1015,3 hPa 0,0 l/m 0,0 km/h N -5,9 C -3,3 C 0,0 km/h
20.01.2019 08:00 -2,5 C 82 % 1015,9 hPa 0,0 l/m 0,0 km/h N -5,2 C -2,5 C 0,0 km/h
20.01.2019 09:00 -2,0 C 82 % 1016,5 hPa 0,0 l/m 0,0 km/h N -4,7 C -2,0 C 0,0 km/h
20.01.2019 10:00 -1,6 C 82 % 1017,0 hPa 0,0 l/m 0,0 km/h N -4,3 C -1,6 C 0,0 km/h
20.01.2019 11:00 -1,5 C 82 % 1017,0 hPa 0,0 l/m 0,1 km/h N -4,2 C -1,5 C 1,2 km/h
20.01.2019 12:00 -0,9 C 82 % 1017,0 hPa 0,0 l/m 0,2 km/h N -3,5 C -0,9 C 1,6 km/h
20.01.2019 13:00 -0,3 C 83 % 1016,7 hPa 0,0 l/m 0,1 km/h N -2,8 C -0,3 C 2,0 km/h
20.01.2019 14:00 0,1 C 80 % 1016,8 hPa 0,0 l/m 0,6 km/h N -2,9 C 0,1 C 5,6 km/h
20.01.2019 15:00 -0,1 C 78 % 1017,1 hPa 0,0 l/m 1,3 km/h N -3,5 C -0,1 C 6,0 km/h
20.01.2019 16:00 -0,5 C 77 % 1017,5 hPa 0,0 l/m 3,4 km/h N -4,0 C -0,5 C 9,3 km/h
20.01.2019 17:00 -0,8 C 77 % 1018,0 hPa 0,0 l/m 4,3 km/h N -4,4 C -0,8 C 10,1 km/h
20.01.2019 18:00 -0,9 C 76 % 1018,6 hPa 0,0 l/m 1,1 km/h N -4,6 C -0,9 C 6,0 km/h
20.01.2019 19:00 -1,1 C 77 % 1019,1 hPa 0,0 l/m 0,1 km/h N -4,6 C -1,1 C 2,0 km/h
20.01.2019 20:00 -1,0 C 76 % 1019,4 hPa 0,0 l/m 0,8 km/h N -4,7 C -1,0 C 4,0 km/h
20.01.2019 21:00 -1,5 C 75 % 1019,7 hPa 0,0 l/m 0,0 km/h N -5,4 C -1,5 C 1,2 km/h
20.01.2019 22:00 -2,5 C 77 % 1020,2 hPa 0,0 l/m 0,0 km/h N -6,0 C -2,5 C 0,8 km/h
20.01.2019 23:00 -2,7 C 79 % 1020,7 hPa 0,0 l/m 0,1 km/h N -5,9 C -2,7 C 1,6 km/h
Min-Datum _ 19.01.19 17.01.19 14.01.19 - 16.01.19 - 19.01.19 19.01.19 16.01.19
_ Min-Zeit 06:45 15:00 01:00 - 15:45 - 06:45 06:45 15:45
Minimum _ -7,3 C 49 % 991,9 hPa - 0,0 km/h - -9,7 C -7,3 C 0,0 km/h
Max-Datum _ 17.01.19 17.01.19 18.01.19 14.01.19 16.01.19 - 14.01.19 17.01.19 15.01.19
_ Max-Zeit 14:45 01:45 23:30 02:30 04:45 - 02:00 14:45 22:30
Maximum _ 11,8 C 83 % 1022,7 hPa 4,2 l/m 22,3 km/h
N
- 3,6 C 11,8 C 62,8 km/h
N
Durchschnitt _ 1,8 C 73 % 1012,6 hPa #9,4 l/m 5,8 km/h N -2,7 C -0,0 C 17,1 km/h